Time;durP1;ratioP1;P1;durP2;ratioP2;P2;SDS_P1;SDS_P2;PMS_P1;PMS_P2;Temp;Humidity;BMP_temperature;BMP_pressure;BME280_temperature;BME280_humidity;BME280_pressure;Samples;Min_cycle;Max_cycle;Signal;HPM_P1;HPM_P2
2022/12/22 03:26:45;;;;;;;28.27;14.73;;;8.70;99.90;;;;;;5052440;28;20085;-69
2022/12/22 03:29:10;;;;;;;24.85;14.82;;;8.70;99.90;;;;;;5034517;28;20076;-69
2022/12/22 03:31:36;;;;;;;24.00;14.75;;;8.70;99.90;;;;;;5052310;28;20053;-68
2022/12/22 03:34:01;;;;;;;27.42;15.93;;;8.70;99.90;;;;;;5049786;28;20040;-69
2022/12/22 03:36:27;;;;;;;30.08;15.52;;;8.80;99.90;;;;;;5051549;28;20048;-69
2022/12/22 03:38:53;;;;;;;27.33;15.57;;;8.70;99.90;;;;;;5051074;28;20083;-69
2022/12/22 03:46:46;;;;;;;25.40;14.82;;;8.80;99.90;;;;;;5050724;28;20049;-69
2022/12/22 03:49:12;;;;;;;24.13;14.75;;;8.80;99.90;;;;;;5033838;28;20086;-69
2022/12/22 03:51:40;;;;;;;27.50;15.93;;;8.80;99.90;;;;;;5052172;28;20186;-69
2022/12/22 03:54:06;;;;;;;27.92;14.98;;;8.80;99.90;;;;;;5051053;28;20044;-69
2022/12/22 03:56:31;;;;;;;25.08;15.35;;;8.80;99.90;;;;;;5050327;28;20450;-69
2022/12/22 03:58:57;;;;;;;26.20;15.35;;;8.80;99.90;;;;;;5050261;28;20052;-69
2022/12/22 04:01:23;;;;;;;26.35;14.55;;;8.80;99.90;;;;;;5051731;28;20036;-68
2022/12/22 04:03:49;;;;;;;29.20;16.27;;;8.80;99.90;;;;;;5049319;28;20460;-69
2022/12/22 04:06:16;;;;;;;27.88;15.32;;;8.80;99.90;;;;;;5050114;28;20037;-69
2022/12/22 04:08:41;;;;;;;24.60;14.40;;;8.90;99.90;;;;;;5050091;28;20456;-69
2022/12/22 04:13:54;;;;;;;25.67;14.52;;;8.90;99.90;;;;;;5050507;28;20494;-69
2022/12/22 04:16:19;;;;;;;27.88;15.43;;;8.80;99.90;;;;;;5048235;28;20067;-70
2022/12/22 04:18:45;;;;;;;23.73;15.25;;;8.90;99.90;;;;;;5049813;28;20505;-69
2022/12/22 04:21:10;;;;;;;27.55;16.38;;;8.80;99.90;;;;;;5050017;28;20056;-69
2022/12/22 04:23:36;;;;;;;24.15;14.65;;;8.90;99.90;;;;;;5033295;28;20044;-69
2022/12/22 04:26:01;;;;;;;25.92;14.48;;;8.90;99.90;;;;;;5032103;28;20542;-69
2022/12/22 04:28:27;;;;;;;27.63;15.73;;;8.90;99.90;;;;;;5051341;28;20503;-69
2022/12/22 04:30:52;;;;;;;28.95;15.88;;;8.90;99.90;;;;;;5050917;28;20094;-69
2022/12/22 04:33:18;;;;;;;26.27;15.52;;;8.90;99.90;;;;;;5051189;28;20186;-69
2022/12/22 04:35:44;;;;;;;23.85;14.20;;;8.90;99.90;;;;;;5049064;28;20048;-69
2022/12/22 04:38:09;;;;;;;27.23;14.57;;;8.90;99.90;;;;;;5049933;28;20051;-68
2022/12/22 04:40:35;;;;;;;24.75;15.05;;;8.90;99.90;;;;;;5050885;28;20048;-69
2022/12/22 04:43:00;;;;;;;31.02;14.95;;;8.90;99.90;;;;;;5049399;28;20114;-69
2022/12/22 04:45:26;;;;;;;26.95;15.23;;;8.90;99.90;;;;;;5032033;28;20048;-70
2022/12/22 04:47:51;;;;;;;25.35;15.55;;;8.90;99.90;;;;;;5050878;28;20649;-69
2022/12/22 04:50:17;;;;;;;25.88;15.00;;;8.90;99.90;;;;;;5049649;28;20079;-69
2022/12/22 04:52:43;;;;;;;25.83;15.50;;;8.90;99.90;;;;;;5049320;28;20063;-70
2022/12/22 04:55:08;;;;;;;26.25;14.35;;;8.90;99.90;;;;;;5050244;28;20079;-69
2022/12/22 04:57:35;;;;;;;31.40;14.63;;;8.90;99.90;;;;;;5050644;28;20481;-69
2022/12/22 05:00:00;;;;;;;28.10;15.63;;;8.90;99.90;;;;;;5049252;28;20037;-69
2022/12/22 05:02:26;;;;;;;26.10;15.52;;;8.90;99.90;;;;;;5049456;28;20040;-69
2022/12/22 05:04:52;;;;;;;29.83;14.20;;;8.90;99.90;;;;;;5049991;28;20094;-69
2022/12/22 05:07:17;;;;;;;27.05;14.98;;;8.90;99.90;;;;;;5050941;28;20108;-69
2022/12/22 05:09:43;;;;;;;24.90;15.00;;;8.90;99.90;;;;;;5049221;28;20036;-69
2022/12/22 05:14:52;;;;;;;26.98;15.60;;;8.90;99.90;;;;;;5048235;28;20045;-69
2022/12/22 05:17:18;;;;;;;28.38;14.73;;;8.90;99.90;;;;;;5049483;28;20044;-69
2022/12/22 05:19:44;;;;;;;30.15;16.50;;;9.00;99.90;;;;;;5049246;28;20045;-69
2022/12/22 05:22:09;;;;;;;28.67;14.70;;;9.00;99.90;;;;;;5050590;28;20493;-69
2022/12/22 05:24:35;;;;;;;27.10;15.35;;;8.90;99.90;;;;;;5049553;28;20390;-70
2022/12/22 05:27:00;;;;;;;28.60;17.23;;;8.90;99.90;;;;;;5050709;28;20052;-69
2022/12/22 05:29:26;;;;;;;28.17;16.00;;;8.90;99.90;;;;;;5050527;28;20041;-69
2022/12/22 05:31:51;;;;;;;25.40;15.60;;;9.00;99.90;;;;;;5048959;28;20116;-69
2022/12/22 05:34:17;;;;;;;27.13;16.65;;;8.90;99.90;;;;;;5049785;28;20072;-69
2022/12/22 05:36:42;;;;;;;28.80;15.63;;;8.90;99.90;;;;;;5050238;28;20044;-69
2022/12/22 05:39:08;;;;;;;31.38;16.85;;;9.00;99.90;;;;;;5050541;28;20041;-69
2022/12/22 05:41:34;;;;;;;30.60;15.60;;;8.90;99.90;;;;;;5050101;28;20128;-69
2022/12/22 05:43:59;;;;;;;28.25;15.00;;;9.00;99.90;;;;;;5049349;28;20072;-70
2022/12/22 05:46:25;;;;;;;27.92;16.10;;;9.00;99.90;;;;;;5048820;28;20086;-69
2022/12/22 05:48:50;;;;;;;29.90;16.60;;;8.90;99.90;;;;;;5050326;28;20045;-69
2022/12/22 05:51:16;;;;;;;31.10;16.17;;;8.90;99.90;;;;;;5048998;28;20570;-69
2022/12/22 05:53:42;;;;;;;30.45;16.05;;;8.90;99.90;;;;;;5048399;28;20559;-70
2022/12/22 05:56:07;;;;;;;28.85;17.40;;;8.90;99.90;;;;;;5048699;28;20037;-70
2022/12/22 05:58:34;;;;;;;29.00;15.82;;;8.90;99.90;;;;;;5051874;28;20505;-69
2022/12/22 06:01:00;;;;;;;30.45;15.85;;;8.90;99.90;;;;;;5035891;28;20067;-69
2022/12/22 06:03:26;;;;;;;28.52;15.52;;;8.90;99.90;;;;;;5053628;28;20700;-69
2022/12/22 06:05:52;;;;;;;34.25;15.38;;;8.90;99.90;;;;;;5051398;28;20105;-69
2022/12/22 06:08:18;;;;;;;29.08;15.65;;;8.90;99.90;;;;;;5053667;28;20119;-70
2022/12/22 06:10:44;;;;;;;29.25;16.30;;;8.90;99.90;;;;;;5052507;28;20045;-70
2022/12/22 06:13:09;;;;;;;28.17;14.40;;;8.90;99.90;;;;;;5053687;28;20037;-68
2022/12/22 06:15:35;;;;;;;30.05;15.65;;;8.90;99.90;;;;;;5051705;28;20080;-68
2022/12/22 06:18:00;;;;;;;30.75;15.48;;;8.90;99.90;;;;;;5052266;28;20044;-69
2022/12/22 06:20:26;;;;;;;29.48;16.02;;;8.90;99.90;;;;;;5053559;28;20045;-69
2022/12/22 06:22:51;;;;;;;27.33;14.95;;;8.90;99.90;;;;;;5052107;28;20048;-69
2022/12/22 06:25:17;;;;;;;27.55;14.55;;;8.90;99.90;;;;;;5051142;28;20055;-69
2022/12/22 06:27:42;;;;;;;27.38;14.43;;;8.90;99.90;;;;;;5051918;28;20036;-69
2022/12/22 06:30:08;;;;;;;25.70;14.48;;;8.90;99.90;;;;;;5053144;28;20039;-69
2022/12/22 06:32:38;;;;;;;28.25;15.05;;;8.90;99.90;;;;;;5053389;28;20079;-69
2022/12/22 06:35:05;;;;;;;24.63;14.27;;;8.90;99.90;;;;;;5051090;28;20562;-69
2022/12/22 06:37:31;;;;;;;28.77;14.18;;;8.90;99.90;;;;;;5035374;28;20048;-69
2022/12/22 06:39:56;;;;;;;28.02;15.02;;;8.90;99.90;;;;;;5053277;28;20047;-70
2022/12/22 06:45:07;;;;;;;25.98;14.35;;;8.90;99.90;;;;;;5052247;28;20057;-69
2022/12/22 06:47:32;;;;;;;25.83;14.55;;;8.90;99.90;;;;;;5051853;28;20517;-69
2022/12/22 06:49:58;;;;;;;28.73;14.82;;;8.90;99.90;;;;;;5051684;28;20041;-69
2022/12/22 06:52:23;;;;;;;26.98;13.55;;;9.00;99.90;;;;;;5051266;28;20037;-69
2022/12/22 06:54:49;;;;;;;38.35;16.02;;;9.00;99.90;;;;;;5051061;28;20045;-69
2022/12/22 06:57:14;;;;;;;35.35;15.60;;;9.00;99.90;;;;;;5051390;28;20084;-69
2022/12/22 06:59:40;;;;;;;34.03;14.82;;;9.00;99.90;;;;;;5051622;28;20101;-69
2022/12/22 07:02:08;;;;;;;34.83;15.70;;;8.90;99.90;;;;;;5052794;28;20044;-69
2022/12/22 07:04:33;;;;;;;34.08;14.07;;;9.00;99.90;;;;;;5051763;28;20493;-69
2022/12/22 07:06:59;;;;;;;35.80;15.88;;;8.90;99.90;;;;;;5051149;28;20044;-69
2022/12/22 07:09:24;;;;;;;39.00;15.18;;;8.90;99.90;;;;;;5052587;28;20033;-70
2022/12/22 07:11:50;;;;;;;37.10;14.57;;;9.00;99.90;;;;;;5051176;28;20128;-69
2022/12/22 07:14:15;;;;;;;38.10;14.95;;;8.90;99.90;;;;;;5051470;28;20485;-69
2022/12/22 07:16:41;;;;;;;37.45;16.02;;;8.90;99.90;;;;;;5051282;28;20045;-69
2022/12/22 07:19:07;;;;;;;41.30;15.50;;;8.90;99.90;;;;;;5052498;28;20056;-69
2022/12/22 07:21:32;;;;;;;35.50;14.30;;;8.90;99.90;;;;;;5051374;28;20448;-69
2022/12/22 07:23:58;;;;;;;35.58;14.98;;;8.80;99.90;;;;;;5050064;28;20037;-69
2022/12/22 07:26:23;;;;;;;36.25;14.05;;;8.80;99.90;;;;;;5050850;28;20041;-69
2022/12/22 07:28:49;;;;;;;34.85;14.05;;;8.70;99.90;;;;;;5050838;28;20040;-69
2022/12/22 07:31:16;;;;;;;38.58;16.65;;;8.70;99.90;;;;;;5050811;28;20041;-69
2022/12/22 07:33:41;;;;;;;35.95;14.98;;;8.70;99.90;;;;;;5051641;28;20037;-69
2022/12/22 07:36:13;;;;;;;32.72;13.25;;;8.70;99.90;;;;;;5051730;28;20143;-69
2022/12/22 07:38:41;;;;;;;35.45;14.15;;;8.60;99.90;;;;;;5047589;28;20132;-68
2022/12/22 07:43:54;;;;;;;33.78;14.75;;;8.50;99.90;;;;;;5041020;28;20485;-69
2022/12/22 07:46:21;;;;;;;30.85;12.90;;;8.40;99.90;;;;;;5048344;28;20087;-69
2022/12/22 07:51:32;;;;;;;30.10;13.27;;;8.30;99.90;;;;;;5049764;28;20449;-69
2022/12/22 07:53:58;;;;;;;29.33;13.63;;;8.20;99.90;;;;;;5046106;28;20098;-69
2022/12/22 07:56:23;;;;;;;30.55;12.00;;;8.20;99.90;;;;;;5030082;28;20409;-69
2022/12/22 07:58:49;;;;;;;29.30;12.75;;;8.10;99.90;;;;;;5048580;28;20119;-69
2022/12/22 08:01:14;;;;;;;28.40;11.65;;;8.00;99.90;;;;;;5050397;28;20037;-69
2022/12/22 08:03:40;;;;;;;28.05;12.68;;;8.00;99.90;;;;;;5050414;28;20052;-69
2022/12/22 08:06:06;;;;;;;38.47;14.10;;;8.00;99.90;;;;;;5049801;28;20064;-69
2022/12/22 08:08:33;;;;;;;35.78;14.25;;;8.00;99.90;;;;;;5050254;28;20433;-69
2022/12/22 08:11:02;;;;;;;40.90;15.35;;;8.00;99.90;;;;;;5050023;28;20084;-69
2022/12/22 08:13:27;;;;;;;36.17;14.43;;;8.00;99.90;;;;;;5050141;28;20053;-68
2022/12/22 08:15:53;;;;;;;32.97;13.68;;;8.00;99.90;;;;;;5049285;28;20080;-69
2022/12/22 08:18:19;;;;;;;33.80;14.77;;;8.00;99.90;;;;;;5049948;28;20055;-69
2022/12/22 08:20:51;;;;;;;37.05;14.23;;;7.90;99.90;;;;;;5050922;28;20032;-69
2022/12/22 08:23:17;;;;;;;34.88;13.35;;;7.90;99.90;;;;;;5049797;28;20080;-70
2022/12/22 08:25:44;;;;;;;37.92;14.55;;;7.90;99.90;;;;;;5049000;28;20045;-69
2022/12/22 08:28:11;;;;;;;38.67;15.57;;;8.00;99.90;;;;;;5051297;28;20064;-69
2022/12/22 08:30:37;;;;;;;43.17;16.60;;;8.10;99.90;;;;;;5050926;28;20490;-69
2022/12/22 08:33:03;;;;;;;39.80;14.65;;;8.10;99.90;;;;;;5029653;28;20059;-69
2022/12/22 08:35:28;;;;;;;36.30;13.32;;;8.10;99.90;;;;;;5029206;28;20041;-69
2022/12/22 08:37:54;;;;;;;37.03;14.60;;;8.10;99.90;;;;;;5051401;28;20033;-69
2022/12/22 08:40:25;;;;;;;36.25;14.75;;;8.10;99.90;;;;;;5045990;28;20056;-69
2022/12/22 08:42:55;;;;;;;36.58;13.93;;;8.10;99.90;;;;;;5047519;28;20600;-69
2022/12/22 08:45:21;;;;;;;35.78;13.63;;;8.20;99.90;;;;;;5049136;28;20127;-69
2022/12/22 08:47:46;;;;;;;38.35;14.90;;;8.10;99.90;;;;;;5049979;28;20163;-68
2022/12/22 08:50:12;;;;;;;35.28;13.15;;;8.10;99.90;;;;;;5045931;28;20029;-69
2022/12/22 08:52:38;;;;;;;30.67;12.75;;;8.10;99.90;;;;;;5049089;28;20041;-69
2022/12/22 08:55:04;;;;;;;33.30;12.73;;;8.10;99.90;;;;;;5049883;28;20059;-69
2022/12/22 08:57:30;;;;;;;29.30;11.98;;;8.10;99.90;;;;;;5050539;28;20098;-69
2022/12/22 08:59:55;;;;;;;34.45;11.38;;;8.10;99.90;;;;;;5048512;28;20045;-69
2022/12/22 09:02:21;;;;;;;22.55;10.23;;;8.10;99.90;;;;;;5049235;28;20056;-70
2022/12/22 09:04:46;;;;;;;24.65;9.93;;;8.10;99.90;;;;;;5049699;28;20045;-69
2022/12/22 09:07:12;;;;;;;29.08;11.05;;;8.10;99.90;;;;;;5049081;28;20056;-69
2022/12/22 09:09:38;;;;;;;28.02;10.73;;;8.00;99.90;;;;;;5050643;28;20087;-69
2022/12/22 09:12:04;;;;;;;29.25;10.40;;;8.00;99.90;;;;;;5050199;28;20079;-70
2022/12/22 09:14:31;;;;;;;22.63;10.10;;;8.00;99.90;;;;;;5048306;28;20120;-70
2022/12/22 09:16:56;;;;;;;27.48;10.85;;;8.00;99.90;;;;;;5050260;28;20077;-69
2022/12/22 09:19:22;;;;;;;23.60;10.48;;;8.00;99.90;;;;;;5050177;28;20442;-69
2022/12/22 09:21:48;;;;;;;36.45;11.93;;;8.00;99.90;;;;;;5050204;28;20159;-69
2022/12/22 09:24:14;;;;;;;29.17;10.15;;;8.00;99.90;;;;;;5055456;28;20036;-69
2022/12/22 09:26:39;;;;;;;23.90;9.15;;;7.90;99.90;;;;;;5053421;28;20041;-68
2022/12/22 09:29:05;;;;;;;25.73;9.75;;;7.90;99.90;;;;;;5032325;28;20048;-71
2022/12/22 09:31:31;;;;;;;25.40;9.90;;;8.00;99.90;;;;;;5032747;28;20057;-69
2022/12/22 09:33:57;;;;;;;27.38;10.07;;;7.90;99.90;;;;;;5052066;28;20080;-70
2022/12/22 09:36:26;;;;;;;19.70;8.90;;;8.00;99.90;;;;;;5054569;28;20440;-69
2022/12/22 09:38:51;;;;;;;26.92;11.05;;;8.00;99.90;;;;;;5054347;28;20051;-69
2022/12/22 09:41:30;;;;;;;24.00;9.55;;;8.00;99.90;;;;;;5054548;28;20405;-71
2022/12/22 09:43:56;;;;;;;27.58;9.43;;;7.90;99.90;;;;;;5051970;28;20060;-69
2022/12/22 09:46:33;;;;;;;25.83;9.43;;;7.90;99.90;;;;;;5036220;28;20052;-72
2022/12/22 09:48:58;;;;;;;27.90;8.70;;;7.90;99.90;;;;;;5052897;28;20116;-72
2022/12/22 09:51:24;;;;;;;23.77;9.57;;;7.90;99.90;;;;;;5052998;28;20116;-72
2022/12/22 09:53:57;;;;;;;26.48;9.27;;;7.90;99.90;;;;;;5052162;28;20151;-72
2022/12/22 09:56:25;;;;;;;21.85;9.15;;;7.90;99.90;;;;;;5052700;28;20052;-73
2022/12/22 09:58:51;;;;;;;23.10;8.77;;;7.90;99.90;;;;;;5053829;28;20041;-72
2022/12/22 10:01:41;;;;;;;21.27;8.23;;;7.90;99.90;;;;;;5053949;28;20052;-72
2022/12/22 10:04:39;;;;;;;19.17;8.38;;;7.90;99.90;;;;;;5051924;28;20041;-72
2022/12/22 10:07:16;;;;;;;21.60;8.18;;;7.90;99.90;;;;;;5054072;28;20056;-72
2022/12/22 10:09:41;;;;;;;22.08;8.52;;;7.90;99.90;;;;;;5053587;28;20056;-73
2022/12/22 10:12:13;;;;;;;26.05;9.48;;;7.80;99.90;;;;;;5053674;28;20397;-73
2022/12/22 10:14:42;;;;;;;24.67;9.20;;;7.90;99.90;;;;;;5053077;28;20068;-72
2022/12/22 10:17:15;;;;;;;20.60;8.93;;;7.90;99.90;;;;;;5053562;28;20033;-72
2022/12/22 10:19:42;;;;;;;23.33;8.43;;;7.90;99.90;;;;;;5035512;28;20094;-73
2022/12/22 10:22:28;;;;;;;24.27;8.70;;;7.90;99.90;;;;;;5053366;28;20499;-72
2022/12/22 10:24:54;;;;;;;25.50;8.18;;;8.00;99.90;;;;;;5051618;28;20091;-72
2022/12/22 10:27:25;;;;;;;22.90;8.90;;;8.00;99.90;;;;;;5035512;28;20037;-73
2022/12/22 10:29:51;;;;;;;19.98;8.05;;;7.90;99.90;;;;;;5052094;28;20476;-72
2022/12/22 10:32:20;;;;;;;21.90;8.80;;;7.90;99.90;;;;;;5051823;28;20502;-73
2022/12/22 10:35:01;;;;;;;27.58;9.32;;;7.80;99.90;;;;;;5052453;28;20090;-72
2022/12/22 10:37:38;;;;;;;20.50;9.88;;;7.90;99.90;;;;;;5051795;28;20041;-72
2022/12/22 10:40:16;;;;;;;24.48;9.75;;;7.90;99.90;;;;;;5053111;28;20094;-72
2022/12/22 10:42:50;;;;;;;18.80;7.88;;;7.90;99.90;;;;;;5035185;28;20040;-73
2022/12/22 10:45:21;;;;;;;20.42;9.25;;;7.90;99.90;;;;;;5051749;28;20105;-72
2022/12/22 10:47:55;;;;;;;18.67;7.53;;;7.80;99.90;;;;;;5051897;28;20323;-72
2022/12/22 10:50:21;;;;;;;18.35;8.65;;;7.80;99.90;;;;;;5051927;28;20698;-72
2022/12/22 10:52:55;;;;;;;19.80;7.35;;;7.80;99.90;;;;;;5048831;28;20037;-73
2022/12/22 10:55:28;;;;;;;18.33;8.02;;;7.80;99.90;;;;;;5053355;28;20127;-73
2022/12/22 10:58:09;;;;;;;20.33;7.85;;;7.70;99.90;;;;;;5056473;28;20066;-74
2022/12/22 11:00:36;;;;;;;15.98;6.93;;;7.70;99.90;;;;;;5055506;28;20041;-73
2022/12/22 11:03:04;;;;;;;18.90;6.68;;;7.70;99.90;;;;;;5056583;28;20619;-74
2022/12/22 11:05:31;;;;;;;15.32;6.82;;;7.70;99.90;;;;;;5058061;28;20041;-73
2022/12/22 11:08:16;;;;;;;16.30;7.43;;;7.70;99.90;;;;;;5050397;28;20040;-72
2022/12/22 11:10:59;;;;;;;17.38;7.45;;;7.70;99.90;;;;;;5036937;28;20504;-73
2022/12/22 11:13:28;;;;;;;17.65;7.63;;;7.70;99.90;;;;;;5033080;28;20045;-73
2022/12/22 11:16:01;;;;;;;15.80;7.20;;;7.70;99.90;;;;;;5050471;28;20114;-72
2022/12/22 11:18:49;;;;;;;11.35;6.53;;;7.80;99.90;;;;;;5050582;28;20048;-70
2022/12/22 11:21:45;;;;;;;13.23;6.45;;;8.10;99.90;;;;;;5051861;28;20040;-71
2022/12/22 11:24:33;;;;;;;13.65;6.72;;;8.10;99.90;;;;;;5051382;28;20148;-73
2022/12/22 11:27:21;;;;;;;14.60;8.43;;;8.10;99.90;;;;;;5050588;28;20131;-69
2022/12/22 11:30:17;;;;;;;10.35;6.45;;;8.10;99.90;;;;;;5050718;28;20044;-69
2022/12/22 11:32:59;;;;;;;13.07;6.00;;;8.20;99.90;;;;;;5024915;28;20401;-70
2022/12/22 11:35:56;;;;;;;14.13;6.53;;;8.20;99.90;;;;;;5038343;28;20050;-69
2022/12/22 11:38:45;;;;;;;14.32;5.97;;;8.30;99.90;;;;;;5036227;28;20544;-69
2022/12/22 11:41:17;;;;;;;14.57;6.00;;;8.20;99.90;;;;;;5050599;28;20110;-69
2022/12/22 11:43:59;;;;;;;11.55;6.10;;;8.30;99.90;;;;;;5050976;28;20041;-69
2022/12/22 11:47:02;;;;;;;12.93;6.67;;;8.30;99.90;;;;;;5061867;28;20040;-69
2022/12/22 11:50:05;;;;;;;17.52;6.47;;;8.30;99.90;;;;;;5061256;28;20287;-68
2022/12/22 11:52:36;;;;;;;14.77;6.22;;;8.40;99.90;;;;;;5062094;28;20499;-69
2022/12/22 11:55:37;;;;;;;15.63;6.40;;;8.40;99.90;;;;;;5059680;28;20143;-69
2022/12/22 11:58:45;;;;;;;17.80;6.82;;;8.40;99.90;;;;;;5061323;28;20040;-69
2022/12/22 12:01:32;;;;;;;16.88;6.63;;;8.40;99.90;;;;;;5060468;28;20533;-68
2022/12/22 12:04:39;;;;;;;15.95;6.53;;;8.50;99.90;;;;;;5056390;28;20068;-69
2022/12/22 12:07:21;;;;;;;15.60;5.90;;;8.50;99.90;;;;;;5060437;28;20060;-68
2022/12/22 12:10:01;;;;;;;19.13;6.47;;;8.50;99.90;;;;;;5060347;28;20132;-69
2022/12/22 12:12:45;;;;;;;16.05;6.50;;;8.50;99.90;;;;;;5059298;28;20520;-69
2022/12/22 12:15:28;;;;;;;14.73;6.97;;;8.60;99.90;;;;;;5056038;28;20120;-69
2022/12/22 12:18:32;;;;;;;26.92;8.13;;;8.60;99.90;;;;;;5047698;28;20509;-69
2022/12/22 12:21:22;;;;;;;17.90;6.50;;;8.50;99.90;;;;;;5048365;28;20040;-68
2022/12/22 12:24:14;;;;;;;18.10;6.35;;;8.60;99.90;;;;;;5048177;28;20037;-69
2022/12/22 12:26:45;;;;;;;16.92;7.03;;;8.60;99.90;;;;;;5050399;28;20118;-69
2022/12/22 12:29:36;;;;;;;16.80;6.82;;;8.70;99.90;;;;;;5049497;28;20043;-69
2022/12/22 12:32:08;;;;;;;16.65;6.38;;;8.70;99.90;;;;;;5049362;28;20362;-69
2022/12/22 12:34:38;;;;;;;13.00;5.78;;;8.70;99.90;;;;;;5048885;28;20051;-69
2022/12/22 12:37:33;;;;;;;16.60;6.43;;;8.70;99.90;;;;;;5049773;28;20051;-69
2022/12/22 12:40:26;;;;;;;13.85;6.47;;;8.70;99.90;;;;;;5051020;28;20037;-69
2022/12/22 12:42:52;;;;;;;16.02;6.35;;;8.70;99.90;;;;;;5049740;28;20037;-69
2022/12/22 12:45:42;;;;;;;23.35;6.93;;;8.70;99.90;;;;;;5050086;28;20052;-69
2022/12/22 12:48:23;;;;;;;17.05;5.93;;;8.80;99.90;;;;;;5050977;28;20044;-69
2022/12/22 12:50:56;;;;;;;19.42;7.55;;;8.80;99.90;;;;;;5049613;28;20397;-68
2022/12/22 12:53:26;;;;;;;19.92;5.75;;;8.80;99.90;;;;;;5050840;28;20048;-67
2022/12/22 12:56:13;;;;;;;24.42;6.20;;;9.20;99.90;;;;;;5048729;28;20052;-70
2022/12/22 12:58:49;;;;;;;17.42;6.47;;;9.10;99.90;;;;;;5030838;28;20118;-69
2022/12/22 13:01:18;;;;;;;18.50;5.78;;;9.00;99.90;;;;;;5049369;28;20044;-70
2022/12/22 13:03:44;;;;;;;19.05;5.57;;;9.00;99.90;;;;;;5048676;28;20041;-70
2022/12/22 13:06:30;;;;;;;15.10;6.18;;;9.00;99.90;;;;;;5049157;28;20524;-68
2022/12/22 13:09:05;;;;;;;17.70;6.15;;;9.00;99.90;;;;;;5057420;28;20041;-68
2022/12/22 13:11:36;;;;;;;13.88;4.85;;;9.00;99.90;;;;;;5056029;28;20113;-70
2022/12/22 13:14:02;;;;;;;12.20;4.65;;;9.00;99.90;;;;;;5056363;28;20584;-68
2022/12/22 13:16:33;;;;;;;12.77;4.88;;;9.00;99.90;;;;;;5057369;28;20120;-68
2022/12/22 13:19:03;;;;;;;16.33;5.38;;;9.00;99.90;;;;;;5057409;28;20045;-69
2022/12/22 13:21:37;;;;;;;15.25;4.60;;;9.10;99.90;;;;;;5057172;28;20037;-68
2022/12/22 13:24:04;;;;;;;11.02;4.63;;;9.10;99.90;;;;;;5056211;28;20090;-68
2022/12/22 13:26:36;;;;;;;13.65;4.72;;;9.00;99.90;;;;;;5057216;28;20048;-68
2022/12/22 13:29:10;;;;;;;13.23;4.72;;;9.10;99.90;;;;;;5057035;28;20037;-69
2022/12/22 13:31:42;;;;;;;13.48;4.97;;;9.10;99.90;;;;;;5057318;28;20118;-69
2022/12/22 13:34:16;;;;;;;17.55;5.22;;;9.10;99.90;;;;;;5056294;28;20057;-70
2022/12/22 13:36:42;;;;;;;10.68;4.13;;;9.10;99.90;;;;;;5057059;28;20043;-68
2022/12/22 13:39:13;;;;;;;11.95;4.05;;;9.10;99.90;;;;;;5056999;28;20119;-68
2022/12/22 13:41:48;;;;;;;9.88;3.70;;;9.10;99.90;;;;;;5055632;28;20490;-68
2022/12/22 13:44:17;;;;;;;13.18;4.60;;;9.20;99.90;;;;;;5054970;28;20079;-68
2022/12/22 13:46:43;;;;;;;7.15;3.22;;;9.10;99.90;;;;;;5062279;28;20040;-68
2022/12/22 13:49:14;;;;;;;6.10;3.70;;;9.10;99.90;;;;;;5065413;28;20048;-68
2022/12/22 13:51:41;;;;;;;12.38;3.50;;;9.10;99.90;;;;;;5065704;28;20618;-68
2022/12/22 13:54:15;;;;;;;13.55;4.03;;;9.10;99.90;;;;;;5076364;28;20036;-68
2022/12/22 13:56:55;;;;;;;15.13;4.55;;;9.10;99.90;;;;;;5075799;28;20075;-68
2022/12/22 13:59:41;;;;;;;8.13;3.40;;;9.00;99.90;;;;;;5075483;28;20132;-68
2022/12/22 14:02:10;;;;;;;7.60;3.10;;;9.10;99.90;;;;;;5076679;28;20071;-69
2022/12/22 14:04:38;;;;;;;10.48;3.45;;;9.10;99.90;;;;;;5076080;28;20448;-70
2022/12/22 14:07:11;;;;;;;7.72;3.40;;;9.00;99.90;;;;;;5075711;28;20044;-69
2022/12/22 14:09:36;;;;;;;13.60;4.18;;;9.00;99.90;;;;;;5076627;28;20515;-68
2022/12/22 14:12:05;;;;;;;12.23;4.18;;;9.00;99.90;;;;;;5076589;28;20032;-69
2022/12/22 14:14:37;;;;;;;13.77;4.63;;;9.00;99.90;;;;;;5076063;28;20050;-68
2022/12/22 14:17:04;;;;;;;9.93;3.80;;;9.00;99.90;;;;;;5076928;28;20036;-69
2022/12/22 14:19:36;;;;;;;11.38;4.20;;;9.10;99.90;;;;;;5073595;28;20489;-67
2022/12/22 14:22:10;;;;;;;11.00;3.78;;;9.10;99.90;;;;;;5072314;28;20052;-68
2022/12/22 14:24:49;;;;;;;9.48;3.95;;;9.00;99.90;;;;;;5072505;28;20116;-67
2022/12/22 14:27:30;;;;;;;15.13;4.25;;;9.00;99.90;;;;;;5072133;28;20045;-70
2022/12/22 14:29:59;;;;;;;13.68;4.43;;;9.00;99.90;;;;;;5071880;28;20036;-69
2022/12/22 14:32:37;;;;;;;13.57;4.20;;;8.90;99.90;;;;;;5073440;28;20265;-70
2022/12/22 14:35:14;;;;;;;20.45;3.88;;;8.90;99.90;;;;;;5070965;28;20119;-70
2022/12/22 14:37:40;;;;;;;16.42;5.60;;;8.90;99.90;;;;;;5071214;28;20059;-69
2022/12/22 14:40:12;;;;;;;13.70;5.13;;;8.90;99.90;;;;;;5071590;28;20459;-69
2022/12/22 14:42:41;;;;;;;;;;;8.80;99.90;;;;;;5072189;28;20040;-69
2022/12/22 14:45:14;;;;;;;13.45;4.38;;;8.80;99.90;;;;;;5072112;28;19921;-70
2022/12/22 14:47:40;;;;;;;12.10;4.07;;;8.80;99.90;;;;;;5072044;28;20393;-69
2022/12/22 14:50:19;;;;;;;22.83;4.65;;;8.80;99.90;;;;;;5071872;28;20055;-70
2022/12/22 14:52:45;;;;;;;13.70;4.38;;;8.80;99.90;;;;;;5071862;28;20411;-71
2022/12/22 14:55:27;;;;;;;10.18;4.32;;;8.80;99.90;;;;;;5070714;28;20140;-69
2022/12/22 14:57:59;;;;;;;15.85;4.75;;;8.80;99.90;;;;;;5072882;28;20045;-69
2022/12/22 15:00:25;;;;;;;11.38;4.65;;;8.70;99.90;;;;;;5064698;28;20103;-68
2022/12/22 15:02:53;;;;;;;12.30;4.75;;;8.70;99.90;;;;;;5059114;28;20556;-70
2022/12/22 15:05:24;;;;;;;7.88;4.13;;;8.70;99.90;;;;;;5059981;28;20044;-70
2022/12/22 15:07:52;;;;;;;13.93;4.70;;;8.70;99.90;;;;;;5059372;28;20493;-70
2022/12/22 15:10:17;;;;;;;11.82;4.88;;;8.60;99.90;;;;;;5058465;28;20033;-70
2022/12/22 15:12:45;;;;;;;15.77;5.00;;;8.60;99.90;;;;;;5063053;28;20138;-69
2022/12/22 15:15:16;;;;;;;13.30;5.05;;;8.60;99.90;;;;;;5061002;28;20045;-70
2022/12/22 15:17:44;;;;;;;7.72;4.90;;;8.60;99.90;;;;;;5052239;28;20157;-70
2022/12/22 15:20:16;;;;;;;10.60;4.90;;;8.50;99.90;;;;;;5058574;28;20040;-70
2022/12/22 15:22:42;;;;;;;11.20;5.30;;;8.50;99.90;;;;;;5062992;28;20051;-70
2022/12/22 15:25:19;;;;;;;13.45;5.88;;;8.50;99.90;;;;;;5060321;28;20037;-70
2022/12/22 15:27:45;;;;;;;15.52;6.00;;;8.50;99.90;;;;;;5054204;28;20028;-70
2022/12/22 15:30:14;;;;;;;12.07;5.13;;;8.50;99.90;;;;;;5049863;28;20052;-70
2022/12/22 15:32:40;;;;;;;13.00;6.05;;;8.40;99.90;;;;;;5033742;28;20132;-70
2022/12/22 15:35:19;;;;;;;14.10;6.43;;;8.50;99.90;;;;;;5050238;28;20117;-70
2022/12/22 15:37:44;;;;;;;12.15;6.25;;;8.50;99.90;;;;;;5050598;28;20040;-70
2022/12/22 15:40:15;;;;;;;14.30;6.57;;;8.50;99.90;;;;;;5047203;28;20507;-70
2022/12/22 15:42:41;;;;;;;13.30;7.63;;;8.50;99.90;;;;;;5050344;28;20085;-70
2022/12/22 15:45:07;;;;;;;14.57;7.75;;;8.50;99.90;;;;;;5049941;28;20045;-70
2022/12/22 15:47:32;;;;;;;14.13;8.15;;;8.40;99.90;;;;;;5049470;28;20095;-71
2022/12/22 15:49:58;;;;;;;16.80;8.30;;;8.50;99.90;;;;;;5050710;28;20618;-70
2022/12/22 15:52:24;;;;;;;15.40;8.02;;;8.50;99.90;;;;;;5050544;28;20086;-71
2022/12/22 15:54:50;;;;;;;21.17;8.15;;;8.40;99.90;;;;;;5050576;28;20040;-69
2022/12/22 15:57:16;;;;;;;24.05;10.02;;;8.40;99.90;;;;;;5049201;28;20063;-70
2022/12/22 15:59:41;;;;;;;25.90;10.20;;;8.40;99.90;;;;;;5050554;28;20045;-69
2022/12/22 16:02:12;;;;;;;23.40;9.75;;;8.40;99.90;;;;;;5051003;28;20040;-70
2022/12/22 16:04:38;;;;;;;20.33;9.32;;;8.30;99.90;;;;;;5047334;28;20079;-69
2022/12/22 16:07:04;;;;;;;28.70;10.30;;;8.30;99.90;;;;;;5045374;28;20519;-70
2022/12/22 16:09:39;;;;;;;22.60;10.43;;;8.20;99.90;;;;;;5052744;28;20036;-70
2022/12/22 16:12:13;;;;;;;23.13;9.50;;;8.20;99.90;;;;;;5047900;28;20040;-71
2022/12/22 16:14:40;;;;;;;23.13;10.13;;;8.20;99.90;;;;;;5035572;28;20036;-71
2022/12/22 16:17:15;;;;;;;19.75;8.82;;;8.20;99.90;;;;;;5049860;28;20126;-70
2022/12/22 16:19:40;;;;;;;17.80;9.20;;;8.20;99.90;;;;;;5048663;28;20182;-70
2022/12/22 16:22:07;;;;;;;16.50;8.23;;;8.20;99.90;;;;;;5049516;28;20493;-70
2022/12/22 16:24:36;;;;;;;25.48;11.25;;;8.20;99.90;;;;;;5047957;28;20044;-71
2022/12/22 16:27:03;;;;;;;17.05;8.75;;;8.20;99.90;;;;;;5035774;28;20406;-70
2022/12/22 16:29:29;;;;;;;18.88;9.13;;;8.20;99.90;;;;;;5034942;28;20069;-70
2022/12/22 16:32:15;;;;;;;15.13;8.23;;;8.10;99.90;;;;;;5029113;28;20107;-70
2022/12/22 16:34:41;;;;;;;18.17;8.93;;;8.20;99.90;;;;;;5028104;28;20460;-70
2022/12/22 16:37:07;;;;;;;16.70;8.38;;;8.20;99.90;;;;;;5031988;28;20526;-71
2022/12/22 16:39:33;;;;;;;17.83;9.07;;;8.20;99.90;;;;;;5030917;28;20048;-69
2022/12/22 16:41:59;;;;;;;14.88;8.60;;;8.20;99.90;;;;;;5039673;28;20052;-69
2022/12/22 16:44:25;;;;;;;22.10;9.75;;;8.20;99.90;;;;;;5049867;28;20043;-69